Time;durP1;ratioP1;P1;durP2;ratioP2;P2;SDS_P1;SDS_P2;PMS_P1;PMS_P2;Temp;Humidity;BMP_temperature;BMP_pressure;BME280_temperature;BME280_humidity;BME280_pressure;Samples;Min_cycle;Max_cycle;Signal;HPM_P1;HPM_P2
2021/05/05 00:00:37;;;;;;;2.33;2.10;;;13.60;80.40;;;;;;5053995;28;20180;-83
2021/05/05 00:03:03;;;;;;;4.05;2.30;;;;;;;;;;5054825;28;20270;-81
2021/05/05 00:05:29;;;;;;;3.75;2.35;;;13.50;80.50;;;;;;5054201;28;20184;-81
2021/05/05 00:07:55;;;;;;;7.88;2.10;;;;;;;;;;5052904;28;20587;-81
2021/05/05 00:10:21;;;;;;;8.45;2.20;;;;;;;;;;5054320;28;20266;-82
2021/05/05 00:12:48;;;;;;;2.50;2.03;;;13.00;68.20;;;;;;5053938;28;20180;-81
2021/05/05 00:15:18;;;;;;;4.63;2.30;;;13.20;68.30;;;;;;5052766;28;20204;-81
2021/05/05 00:17:43;;;;;;;3.38;2.40;;;13.20;68.90;;;;;;5052772;28;20175;-81
2021/05/05 00:20:10;;;;;;;8.35;2.10;;;13.00;80.70;;;;;;5052772;28;20598;-81
2021/05/05 00:22:36;;;;;;;2.92;2.38;;;12.90;80.20;;;;;;5053727;28;20172;-81
2021/05/05 00:25:04;;;;;;;4.43;2.10;;;12.80;80.20;;;;;;5052374;28;20640;-81
2021/05/05 00:27:30;;;;;;;2.85;2.10;;;13.00;79.80;;;;;;5053715;28;20172;-82
2021/05/05 00:29:57;;;;;;;4.38;2.20;;;12.90;75.80;;;;;;5052842;28;20290;-81
2021/05/05 00:32:22;;;;;;;5.72;2.60;;;13.10;75.80;;;;;;5054077;28;20266;-83
2021/05/05 00:34:48;;;;;;;6.18;2.35;;;;;;;;;;5054153;28;20632;-82
2021/05/05 00:37:14;;;;;;;3.13;2.15;;;13.00;80.10;;;;;;5053892;28;20180;-81
2021/05/05 00:39:40;;;;;;;2.78;2.03;;;;;;;;;;5052475;28;20183;-81
2021/05/05 00:42:06;;;;;;;2.97;2.30;;;13.10;67.70;;;;;;5053501;28;20629;-83
2021/05/05 00:44:33;;;;;;;2.95;1.92;;;;;;;;;;5053461;28;20234;-82
2021/05/05 00:46:59;;;;;;;3.75;2.05;;;13.00;67.30;;;;;;5053735;28;20258;-82
2021/05/05 00:49:25;;;;;;;4.32;2.30;;;13.00;79.70;;;;;;5053231;28;20183;-82
2021/05/05 00:51:51;;;;;;;5.68;2.60;;;;;;;;;;5053606;28;20204;-82
2021/05/05 00:54:17;;;;;;;4.78;2.03;;;12.80;79.90;;;;;;5035244;28;20200;-81
2021/05/05 00:56:44;;;;;;;4.18;2.25;;;13.40;80.20;;;;;;5053346;28;20259;-81
2021/05/05 00:59:10;;;;;;;3.22;1.90;;;13.10;67.60;;;;;;5053538;28;20217;-81
2021/05/05 01:01:36;;;;;;;4.70;2.45;;;;;;;;;;5052090;28;20671;-81
2021/05/05 01:04:01;;;;;;;7.70;2.70;;;13.00;67.30;;;;;;5053570;28;20183;-81
2021/05/05 01:06:27;;;;;;;7.53;2.67;;;12.80;79.70;;;;;;5053489;28;20188;-82
2021/05/05 01:08:53;;;;;;;3.85;2.63;;;;;;;;;;5053344;28;20239;-83
2021/05/05 01:11:19;;;;;;;5.05;2.20;;;13.00;78.30;;;;;;5053369;28;20204;-81
2021/05/05 01:13:45;;;;;;;4.32;2.42;;;;;;;;;;5052162;28;20176;-81
2021/05/05 01:16:15;;;;;;;3.97;2.33;;;13.20;78.90;;;;;;5053091;28;20184;-82
2021/05/05 01:18:42;;;;;;;7.03;2.42;;;12.90;78.90;;;;;;5052551;28;20541;-83
2021/05/05 01:21:08;;;;;;;7.50;2.30;;;13.10;67.10;;;;;;5035468;28;20594;-82
2021/05/05 01:23:34;;;;;;;6.35;2.10;;;;;;;;;;5051871;28;20180;-83
2021/05/05 01:26:00;;;;;;;5.47;2.75;;;12.90;78.70;;;;;;5053251;28;20207;-83
2021/05/05 01:28:25;;;;;;;5.30;2.17;;;12.80;77.80;;;;;;5053136;28;20179;-82
2021/05/05 01:30:52;;;;;;;3.40;2.55;;;13.10;78.20;;;;;;5052440;28;20204;-82
2021/05/05 01:33:18;;;;;;;4.40;2.40;;;13.20;66.00;;;;;;5053095;28;20190;-83
2021/05/05 01:35:47;;;;;;;4.72;1.90;;;13.10;77.50;;;;;;5052620;28;20234;-83
2021/05/05 01:38:13;;;;;;;4.78;1.98;;;13.20;77.50;;;;;;5052398;28;20266;-83
2021/05/05 01:40:42;;;;;;;4.22;2.47;;;13.30;77.70;;;;;;5051281;28;20617;-83
2021/05/05 01:43:08;;;;;;;3.78;2.10;;;13.70;79.10;;;;;;5052836;28;20633;-83
2021/05/05 01:45:35;;;;;;;6.85;2.25;;;13.40;79.40;;;;;;5051351;28;20176;-84
2021/05/05 01:48:07;;;;;;;5.53;2.35;;;12.90;79.60;;;;;;5052960;28;20180;-83
2021/05/05 01:50:32;;;;;;;2.88;2.10;;;12.80;78.80;;;;;;5052811;28;20188;-84
2021/05/05 01:52:58;;;;;;;4.22;2.47;;;;;;;;;;5052719;28;20207;-82
2021/05/05 01:55:24;;;;;;;2.45;2.08;;;13.20;81.10;;;;;;5053111;28;20183;-82
2021/05/05 01:57:50;;;;;;;4.20;2.03;;;;;;;;;;5052664;28;20180;-82
2021/05/05 02:00:17;;;;;;;3.15;1.92;;;12.80;78.80;;;;;;5052410;28;20180;-81
2021/05/05 02:02:44;;;;;;;4.57;2.33;;;12.70;69.40;;;;;;5052245;28;20172;-84
2021/05/05 02:05:11;;;;;;;3.60;1.92;;;13.50;79.40;;;;;;5052421;28;20180;-82
2021/05/05 02:07:37;;;;;;;3.58;2.22;;;13.20;78.90;;;;;;5052384;28;20180;-83
2021/05/05 02:10:08;;;;;;;2.88;2.10;;;13.00;66.00;;;;;;5052391;28;20215;-82
2021/05/05 02:12:35;;;;;;;2.58;2.20;;;;;;;;;;5052190;28;20168;-84
2021/05/05 02:15:00;;;;;;;4.75;2.40;;;13.00;65.70;;;;;;5052433;28;20180;-83
2021/05/05 02:17:26;;;;;;;3.42;2.10;;;13.00;78.40;;;;;;5050982;28;20172;-83
2021/05/05 02:19:53;;;;;;;3.85;2.30;;;;;;;;;;5051158;28;20176;-84
2021/05/05 02:22:19;;;;;;;2.30;2.10;;;;;;;;;;5052311;28;20619;-83
2021/05/05 02:24:45;;;;;;;2.58;2.15;;;13.30;78.70;;;;;;5052763;28;20207;-83
2021/05/05 02:27:11;;;;;;;4.13;2.60;;;;;;;;;;5056356;28;20656;-82
2021/05/05 02:29:37;;;;;;;3.15;2.63;;;13.20;79.30;;;;;;5054798;28;20180;-83
2021/05/05 02:32:07;;;;;;;3.95;2.42;;;12.90;66.00;;;;;;5056314;28;20218;-82
2021/05/05 02:34:35;;;;;;;2.88;2.15;;;13.10;79.40;;;;;;5055938;28;20160;-83
2021/05/05 02:37:03;;;;;;;3.53;2.67;;;12.90;78.70;;;;;;5055923;28;20629;-83
2021/05/05 02:39:28;;;;;;;2.92;2.05;;;12.90;66.60;;;;;;5056053;28;20179;-82
2021/05/05 02:41:54;;;;;;;11.43;2.20;;;13.20;80.20;;;;;;5055601;28;20179;-83
2021/05/05 02:44:20;;;;;;;2.20;2.00;;;12.70;78.30;;;;;;5055801;28;20214;-83
2021/05/05 02:46:46;;;;;;;3.75;2.30;;;12.90;66.20;;;;;;5055787;28;20275;-83
2021/05/05 02:49:12;;;;;;;3.28;1.90;;;13.00;79.80;;;;;;5055869;28;20203;-83
2021/05/05 02:51:38;;;;;;;7.20;2.47;;;;;;;;;;5055740;28;20570;-87
2021/05/05 02:54:04;;;;;;;6.47;2.03;;;12.40;73.60;;;;;;5055263;28;20565;-82
2021/05/05 02:56:30;;;;;;;4.25;2.03;;;13.00;79.80;;;;;;5055951;28;20187;-82
2021/05/05 02:58:56;;;;;;;2.97;2.30;;;12.70;78.90;;;;;;5053936;28;20179;-82
2021/05/05 03:01:22;;;;;;;4.53;1.90;;;;;;;;;;5055577;28;20184;-82
2021/05/05 03:03:49;;;;;;;3.13;2.00;;;12.50;78.30;;;;;;5055054;28;20178;-83
2021/05/05 03:06:14;;;;;;;5.05;2.40;;;12.50;78.40;;;;;;5055139;28;20187;-83
2021/05/05 03:08:40;;;;;;;3.30;2.30;;;;;;;;;;5055138;28;20231;-86
2021/05/05 03:11:06;;;;;;;3.53;2.15;;;12.60;79.30;;;;;;5055350;28;20766;-81
2021/05/05 03:13:32;;;;;;;3.70;2.38;;;;;;;;;;5055034;28;20200;-82
2021/05/05 03:15:58;;;;;;;13.70;5.53;;;12.50;79.30;;;;;;5053339;28;20545;-81
2021/05/05 03:18:24;;;;;;;6.95;4.97;;;12.50;79.30;;;;;;5053929;28;20180;-81
2021/05/05 03:20:50;;;;;;;2.83;2.58;;;12.80;72.40;;;;;;5054136;28;20218;-81
2021/05/05 03:23:16;;;;;;;3.28;2.60;;;12.50;80.10;;;;;;5055016;28;20637;-81
2021/05/05 03:25:43;;;;;;;4.90;2.38;;;;;;;;;;5053855;28;20282;-86
2021/05/05 03:28:09;;;;;;;2.55;2.28;;;12.40;79.70;;;;;;5054563;28;20537;-81
2021/05/05 03:30:35;;;;;;;4.18;1.92;;;12.70;68.50;;;;;;5055070;28;20299;-81
2021/05/05 03:33:01;;;;;;;6.07;5.57;;;13.00;81.40;;;;;;5054695;28;20645;-81
2021/05/05 03:35:27;;;;;;;4.40;3.40;;;12.30;81.00;;;;;;5054232;28;20249;-81
2021/05/05 03:37:53;;;;;;;10.02;7.38;;;;;;;;;;5054738;28;20176;-82
2021/05/05 03:40:19;;;;;;;5.15;3.50;;;12.60;80.40;;;;;;5055029;28;20184;-81
2021/05/05 03:42:45;;;;;;;4.70;2.53;;;;;;;;;;5053154;28;20176;-84
2021/05/05 03:45:11;;;;;;;9.07;2.47;;;12.70;69.00;;;;;;5054910;28;20176;-81
2021/05/05 03:47:38;;;;;;;3.42;2.55;;;;;;;;;;5054058;28;20230;-81
2021/05/05 03:50:08;;;;;;;5.13;2.53;;;12.90;83.40;;;;;;5054418;28;20188;-81
2021/05/05 03:52:34;;;;;;;5.55;2.60;;;;;;;;;;5054874;28;20172;-81
2021/05/05 03:54:59;;;;;;;3.25;2.40;;;12.90;83.40;;;;;;5053009;28;20187;-82
2021/05/05 03:57:25;;;;;;;5.78;2.55;;;12.80;83.50;;;;;;5054693;28;20183;-81
2021/05/05 03:59:51;;;;;;;3.42;2.40;;;;;;;;;;5054622;28;20266;-82
2021/05/05 04:02:17;;;;;;;3.35;2.25;;;12.50;83.60;;;;;;5054667;28;20588;-82
2021/05/05 04:04:43;;;;;;;4.38;2.38;;;;;;;;;;5054104;28;20175;-81
2021/05/05 04:07:08;;;;;;;6.88;2.58;;;12.70;70.80;;;;;;5053000;28;20175;-82
2021/05/05 04:09:35;;;;;;;2.63;2.20;;;;;;;;;;5053456;28;20235;-83
2021/05/05 04:12:02;;;;;;;6.05;2.50;;;12.70;83.60;;;;;;5054207;28;20294;-81
2021/05/05 04:14:28;;;;;;;3.60;2.17;;;12.70;71.60;;;;;;5054404;28;20187;-81
2021/05/05 04:16:54;;;;;;;4.03;2.03;;;12.60;83.90;;;;;;5036065;28;20538;-82
2021/05/05 04:19:19;;;;;;;3.53;2.08;;;13.20;84.50;;;;;;5053065;28;20180;-81
2021/05/05 04:21:45;;;;;;;3.55;2.30;;;12.70;72.10;;;;;;5053024;28;20198;-81
2021/05/05 04:24:12;;;;;;;3.20;2.13;;;12.80;83.40;;;;;;5052822;28;20205;-81
2021/05/05 04:26:38;;;;;;;3.63;2.20;;;12.60;83.30;;;;;;5053841;28;20664;-81
2021/05/05 04:29:04;;;;;;;7.22;2.22;;;12.50;82.80;;;;;;5053792;28;20229;-82
2021/05/05 04:31:30;;;;;;;4.22;2.63;;;12.50;83.50;;;;;;5053990;28;20652;-81
2021/05/05 04:33:56;;;;;;;3.33;2.15;;;12.60;83.60;;;;;;5053636;28;20184;-82
2021/05/05 04:36:22;;;;;;;4.30;2.00;;;;;;;;;;5052393;28;20172;-82
2021/05/05 04:38:48;;;;;;;6.65;3.00;;;12.60;83.50;;;;;;5052519;28;20184;-81
2021/05/05 04:41:14;;;;;;;2.35;2.05;;;12.90;84.20;;;;;;5053394;28;20180;-82
2021/05/05 04:43:39;;;;;;;4.43;2.17;;;12.60;83.50;;;;;;5035977;28;20184;-81
2021/05/05 04:46:05;;;;;;;3.80;2.20;;;12.90;84.00;;;;;;5053443;28;20175;-82
2021/05/05 04:48:31;;;;;;;7.03;2.20;;;;;;;;;;5052650;28;20172;-83
2021/05/05 04:50:57;;;;;;;2.90;2.00;;;;;;;;;;5051847;28;20290;-81
2021/05/05 04:53:23;;;;;;;5.45;2.22;;;12.70;83.80;;;;;;5053633;28;20624;-81
2021/05/05 04:55:50;;;;;;;4.60;2.40;;;;;;;;;;5053499;28;20230;-81
2021/05/05 04:58:16;;;;;;;3.95;2.22;;;12.50;83.40;;;;;;5053202;28;20172;-81
2021/05/05 05:00:42;;;;;;;4.75;2.03;;;;;;;;;;5053504;28;20183;-83
2021/05/05 05:03:08;;;;;;;2.63;2.13;;;;;;;;;;5045086;28;20199;-81
2021/05/05 05:05:34;;;;;;;9.35;2.42;;;;;;;;;;5050672;28;20188;-85
2021/05/05 05:07:59;;;;;;;9.75;2.80;;;13.10;83.20;;;;;;5048664;28;20239;-83
2021/05/05 05:10:25;;;;;;;5.00;2.28;;;13.00;82.80;;;;;;5051946;28;20253;-82
2021/05/05 05:12:52;;;;;;;4.50;2.63;;;;;;;;;;5051289;28;20198;-82
2021/05/05 05:15:18;;;;;;;8.95;2.63;;;;;;;;;;5050926;28;20197;-82
2021/05/05 05:17:43;;;;;;;3.63;2.03;;;13.80;83.50;;;;;;5049935;28;20184;-82
2021/05/05 05:20:09;;;;;;;8.45;2.78;;;13.70;84.20;;;;;;5062171;28;20194;-83
2021/05/05 05:22:36;;;;;;;4.72;2.38;;;13.50;71.60;;;;;;5067539;28;20179;-84
2021/05/05 05:25:04;;;;;;;2.92;1.88;;;13.70;82.50;;;;;;5055026;28;20577;-84
2021/05/05 05:27:30;;;;;;;4.55;2.10;;;13.40;83.20;;;;;;5051218;28;20176;-83
2021/05/05 05:29:56;;;;;;;8.25;2.40;;;;;;;;;;5051322;28;20176;-82
2021/05/05 05:32:22;;;;;;;8.23;2.70;;;;;;;;;;5051399;28;20195;-83
2021/05/05 05:34:48;;;;;;;6.68;2.72;;;;;;;;;;5064778;28;20191;-84
2021/05/05 05:37:14;;;;;;;6.38;2.25;;;;;;;;;;5052454;28;20279;-83
2021/05/05 05:39:40;;;;;;;4.43;2.72;;;14.20;72.40;;;;;;5083771;28;20187;-84
2021/05/05 05:42:06;;;;;;;5.53;2.80;;;;;;;;;;5054213;28;20632;-85
2021/05/05 05:44:32;;;;;;;3.67;2.60;;;;;;;;;;5062396;28;20270;-85
2021/05/05 05:46:58;;;;;;;4.32;2.00;;;;;;;;;;5051309;28;20199;-85
2021/05/05 05:49:24;;;;;;;3.60;2.00;;;;;;;;;;5053462;28;20199;-85
2021/05/05 05:51:50;;;;;;;5.43;2.30;;;14.60;80.50;;;;;;5068709;28;20230;-84
2021/05/05 05:54:16;;;;;;;6.35;2.30;;;14.90;67.00;;;;;;5067219;28;20299;-82
2021/05/05 05:56:42;;;;;;;9.27;2.85;;;;;;;;;;5067913;28;20207;-84
2021/05/05 05:59:08;;;;;;;2.67;1.90;;;14.80;75.90;;;;;;5069750;28;20228;-83
2021/05/05 06:01:34;;;;;;;7.78;2.35;;;;;;;;;;5069079;28;20187;-82
2021/05/05 06:04:00;;;;;;;7.70;2.15;;;15.30;79.40;;;;;;5071829;28;20523;-82
2021/05/05 06:06:25;;;;;;;3.25;2.22;;;14.80;71.00;;;;;;5060288;28;20195;-85
2021/05/05 06:08:51;;;;;;;4.25;2.03;;;14.60;77.80;;;;;;5067712;28;20230;-82
2021/05/05 06:11:17;;;;;;;7.70;2.03;;;;;;;;;;5072350;28;20610;-83
2021/05/05 06:13:43;;;;;;;9.20;2.30;;;15.00;78.60;;;;;;5074065;28;20225;-82
2021/05/05 06:16:09;;;;;;;14.18;2.33;;;;;;;;;;5057647;28;20211;-83
2021/05/05 06:18:35;;;;;;;7.22;2.70;;;14.80;69.30;;;;;;5055630;28;20184;-84
2021/05/05 06:21:00;;;;;;;3.58;2.30;;;15.00;81.10;;;;;;5054736;28;20195;-82
2021/05/05 06:23:26;;;;;;;6.30;2.13;;;15.30;67.60;;;;;;5054084;28;20738;-83
2021/05/05 06:25:52;;;;;;;3.03;2.22;;;14.40;73.20;;;;;;5052629;28;20183;-84
2021/05/05 06:28:18;;;;;;;3.88;2.00;;;;;;;;;;5053800;28;20210;-83
2021/05/05 06:30:44;;;;;;;6.88;1.98;;;;;;;;;;5052974;28;20694;-84
2021/05/05 06:33:10;;;;;;;4.57;1.85;;;;;;;;;;5054741;28;20192;-83
2021/05/05 06:35:36;;;;;;;5.15;2.95;;;14.60;78.30;;;;;;5054301;28;20190;-82
2021/05/05 06:38:02;;;;;;;5.43;2.40;;;;;;;;;;5054788;28;20180;-83
2021/05/05 06:40:28;;;;;;;3.60;1.88;;;15.40;68.60;;;;;;5054839;28;20241;-83
2021/05/05 06:42:54;;;;;;;8.85;3.30;;;;;;;;;;5054749;28;20188;-84
2021/05/05 06:45:20;;;;;;;7.05;2.28;;;15.70;68.70;;;;;;5055380;28;20176;-83
2021/05/05 06:47:46;;;;;;;3.63;1.83;;;;;;;;;;5054822;28;20187;-83
2021/05/05 06:50:13;;;;;;;4.32;1.92;;;16.50;75.80;;;;;;5054132;28;20204;-82
2021/05/05 06:52:39;;;;;;;7.38;2.10;;;;;;;;;;5054853;28;20234;-83
2021/05/05 06:55:06;;;;;;;6.10;1.65;;;16.00;75.00;;;;;;5053398;28;20234;-84
2021/05/05 06:57:32;;;;;;;4.75;2.15;;;16.70;68.60;;;;;;5053986;28;20199;-84
2021/05/05 06:59:58;;;;;;;5.57;2.38;;;16.80;69.60;;;;;;5055110;28;20211;-82
2021/05/05 07:02:23;;;;;;;4.30;1.83;;;16.40;73.10;;;;;;5055115;28;20233;-82
2021/05/05 07:04:50;;;;;;;3.75;2.30;;;;;;;;;;5054734;28;20641;-82
2021/05/05 07:07:15;;;;;;;7.60;2.13;;;16.70;73.50;;;;;;5054643;28;20272;-83
2021/05/05 07:09:42;;;;;;;3.70;1.80;;;16.50;72.80;;;;;;5054694;28;20311;-83
2021/05/05 07:12:08;;;;;;;5.10;2.40;;;16.10;71.80;;;;;;5036846;28;20204;-83
2021/05/05 07:14:34;;;;;;;4.38;1.88;;;16.20;72.50;;;;;;5056131;28;20191;-83
2021/05/05 07:17:00;;;;;;;2.97;2.17;;;;;;;;;;5038576;28;20204;-82
2021/05/05 07:19:25;;;;;;;3.95;1.83;;;16.60;72.70;;;;;;5056068;28;20237;-83
2021/05/05 07:21:52;;;;;;;5.55;2.22;;;;;;;;;;5056359;28;20184;-82
2021/05/05 07:24:17;;;;;;;7.85;2.53;;;16.50;70.80;;;;;;5056621;28;20191;-81
2021/05/05 07:26:43;;;;;;;5.03;3.05;;;17.00;71.40;;;;;;5055581;28;20180;-84
2021/05/05 07:29:09;;;;;;;3.53;2.10;;;16.90;70.10;;;;;;5056093;28;20180;-83
2021/05/05 07:31:35;;;;;;;3.63;2.28;;;16.80;71.40;;;;;;5054998;28;20207;-84
2021/05/05 07:34:01;;;;;;;3.53;2.10;;;17.40;70.60;;;;;;5054381;28;20184;-84
2021/05/05 07:36:27;;;;;;;2.78;2.00;;;17.30;70.80;;;;;;5054946;28;20624;-84
2021/05/05 07:46:48;;;;;;;4.53;1.92;;;17.30;68.50;;;;;;5040256;28;20698;-81
2021/05/05 07:49:17;;;;;;;2.67;1.67;;;17.00;68.10;;;;;;5055178;28;20167;-82
2021/05/05 07:51:43;;;;;;;4.35;2.10;;;17.60;59.60;;;;;;5055053;28;20218;-83
2021/05/05 07:54:09;;;;;;;9.40;2.20;;;17.30;58.40;;;;;;5054011;28;20561;-84
2021/05/05 07:56:35;;;;;;;4.90;1.92;;;17.80;68.80;;;;;;5054536;28;20182;-83
2021/05/05 07:59:02;;;;;;;8.32;2.10;;;17.40;68.40;;;;;;5053637;28;20180;-83
2021/05/05 08:01:29;;;;;;;5.32;2.03;;;17.10;68.40;;;;;;5054657;28;20180;-84
2021/05/05 08:03:55;;;;;;;4.20;2.10;;;17.50;68.80;;;;;;5055065;28;20609;-83
2021/05/05 08:06:21;;;;;;;6.70;1.98;;;17.20;68.60;;;;;;5053424;28;20176;-84
2021/05/05 08:08:47;;;;;;;2.00;1.67;;;16.50;57.10;;;;;;5055199;28;20230;-83
2021/05/05 08:11:12;;;;;;;6.82;1.75;;;17.50;69.30;;;;;;5056609;28;20226;-84
2021/05/05 08:13:39;;;;;;;6.60;2.15;;;17.40;68.60;;;;;;5054999;28;20216;-83
2021/05/05 08:16:06;;;;;;;10.48;2.15;;;18.00;68.20;;;;;;5054591;28;20187;-82
2021/05/05 08:18:32;;;;;;;11.25;2.53;;;18.10;68.70;;;;;;5054228;28;20191;-82
2021/05/05 08:21:01;;;;;;;5.13;2.03;;;18.10;59.00;;;;;;5053110;28;20632;-83
2021/05/05 08:23:27;;;;;;;5.82;1.80;;;18.50;65.90;;;;;;5053722;28;20180;-84
2021/05/05 08:25:53;;;;;;;4.03;1.83;;;;;;;;;;5054179;28;20179;-82
2021/05/05 08:28:18;;;;;;;8.10;2.03;;;18.80;56.90;;;;;;5054045;28;20267;-81
2021/05/05 08:30:44;;;;;;;5.30;1.90;;;;;;;;;;5053221;28;20291;-82
2021/05/05 08:33:10;;;;;;;2.33;2.03;;;19.20;65.30;;;;;;5053834;28;20183;-82
2021/05/05 08:35:37;;;;;;;3.40;1.85;;;18.70;64.90;;;;;;5052485;28;20615;-83
2021/05/05 08:38:03;;;;;;;3.20;2.22;;;18.50;65.60;;;;;;5036336;28;20188;-83
2021/05/05 08:40:30;;;;;;;5.47;2.00;;;18.80;65.80;;;;;;5053718;28;20632;-84
2021/05/05 08:42:56;;;;;;;5.72;1.77;;;;;;;;;;5053986;28;20713;-83
2021/05/05 08:45:25;;;;;;;5.43;2.30;;;19.00;56.10;;;;;;5053046;28;20179;-88
2021/05/05 08:47:53;;;;;;;7.60;2.00;;;18.90;64.80;;;;;;5053607;28;20274;-82
2021/05/05 08:50:21;;;;;;;4.20;1.95;;;19.00;56.80;;;;;;5052292;28;20199;-84
2021/05/05 08:52:47;;;;;;;5.43;1.88;;;18.90;65.80;;;;;;5051854;28;20172;-86
2021/05/05 08:55:15;;;;;;;6.32;2.13;;;19.70;67.00;;;;;;5052189;28;20179;-84
2021/05/05 08:57:41;;;;;;;3.20;1.70;;;;;;;;;;5050658;28;20257;-85
2021/05/05 09:00:09;;;;;;;5.32;2.00;;;19.50;66.20;;;;;;5052079;28;20226;-84
2021/05/05 09:02:35;;;;;;;2.80;2.00;;;19.30;67.30;;;;;;5051514;28;20175;-83
2021/05/05 09:05:09;;;;;;;6.25;2.35;;;19.50;64.30;;;;;;5052217;28;20619;-83
2021/05/05 09:07:37;;;;;;;2.65;1.80;;;20.00;63.70;;;;;;5053433;28;20160;-84
2021/05/05 09:10:13;;;;;;;4.65;2.28;;;19.70;56.00;;;;;;5053769;28;20575;-84
2021/05/05 09:12:43;;;;;;;4.55;2.58;;;19.50;64.90;;;;;;5053414;28;20169;-84
2021/05/05 09:15:18;;;;;;;4.20;1.83;;;20.10;64.10;;;;;;5053617;28;20271;-84
2021/05/05 09:17:49;;;;;;;2.70;1.80;;;20.10;64.10;;;;;;5053868;28;20156;-84
2021/05/05 09:20:16;;;;;;;3.30;1.95;;;20.00;63.60;;;;;;5053560;28;20255;-84
2021/05/05 09:22:49;;;;;;;3.92;1.77;;;19.60;59.60;;;;;;5053400;28;20186;-83
2021/05/05 09:25:35;;;;;;;6.70;2.00;;;20.00;60.90;;;;;;5052405;28;20178;-84
2021/05/05 09:28:20;;;;;;;10.73;2.20;;;20.00;62.50;;;;;;5049072;28;20184;-84
2021/05/05 09:30:51;;;;;;;4.05;1.90;;;20.50;52.90;;;;;;5054228;28;20255;-85
2021/05/05 09:33:32;;;;;;;9.45;2.05;;;20.70;62.30;;;;;;5055642;28;20167;-86
2021/05/05 09:36:00;;;;;;;3.95;1.77;;;20.40;60.50;;;;;;5056053;28;20198;-86
2021/05/05 09:38:50;;;;;;;5.55;2.30;;;20.80;59.40;;;;;;5053964;28;20176;-85
2021/05/05 09:41:24;;;;;;;11.50;2.97;;;20.90;62.80;;;;;;5056120;28;20255;-85
2021/05/05 09:43:51;;;;;;;6.97;1.92;;;20.90;58.50;;;;;;5053829;28;20176;-86
2021/05/05 09:46:40;;;;;;;8.25;3.08;;;20.90;51.90;;;;;;5053428;28;20180;-86
2021/05/05 09:49:34;;;;;;;2.47;1.60;;;21.20;51.40;;;;;;5054935;28;20225;-86
2021/05/05 09:52:11;;;;;;;3.05;1.58;;;20.60;56.80;;;;;;5053995;28;20640;-86
2021/05/05 09:55:01;;;;;;;4.00;1.95;;;21.20;59.20;;;;;;5054034;28;20612;-85
2021/05/05 09:57:32;;;;;;;4.72;1.90;;;20.90;60.30;;;;;;5054354;28;20164;-85
2021/05/05 10:00:17;;;;;;;3.67;1.95;;;21.40;59.00;;;;;;5053821;28;20261;-85
2021/05/05 10:02:50;;;;;;;4.38;1.73;;;21.50;58.90;;;;;;5053061;28;20179;-86
2021/05/05 10:05:23;;;;;;;3.92;1.70;;;21.70;58.60;;;;;;5053682;28;20168;-85
2021/05/05 10:07:56;;;;;;;3.20;1.75;;;21.80;56.70;;;;;;5052460;28;20328;-85
2021/05/05 10:10:27;;;;;;;4.25;1.63;;;22.00;55.30;;;;;;5053053;28;20329;-85
2021/05/05 10:12:55;;;;;;;4.28;2.17;;;22.20;53.90;;;;;;5052148;28;20266;-85
2021/05/05 10:15:21;;;;;;;5.15;1.75;;;;;;;;;;5052251;28;20310;-86
2021/05/05 10:17:51;;;;;;;9.00;1.98;;;21.80;55.70;;;;;;5052520;28;20648;-85
2021/05/05 10:20:21;;;;;;;3.13;1.52;;;21.90;47.80;;;;;;5052688;28;20693;-86
2021/05/05 10:22:47;;;;;;;5.53;2.35;;;21.80;55.80;;;;;;5053091;28;20173;-85
2021/05/05 10:25:17;;;;;;;6.00;1.73;;;21.70;53.20;;;;;;5051915;28;20182;-85
2021/05/05 10:27:44;;;;;;;3.40;1.65;;;21.50;53.80;;;;;;5053318;28;20305;-86
2021/05/05 10:30:13;;;;;;;3.85;2.72;;;22.30;54.10;;;;;;5052786;28;20176;-85
2021/05/05 10:32:41;;;;;;;4.03;1.60;;;22.00;53.60;;;;;;5051628;28;20184;-86
2021/05/05 10:35:09;;;;;;;4.80;1.58;;;22.00;48.10;;;;;;5053502;28;20255;-84
2021/05/05 10:37:41;;;;;;;4.68;1.58;;;22.00;45.50;;;;;;5053651;28;20176;-85
2021/05/05 10:40:35;;;;;;;7.97;2.60;;;22.20;53.60;;;;;;5053576;28;20168;-84
2021/05/05 10:43:06;;;;;;;5.47;1.58;;;21.80;51.80;;;;;;5051209;28;20192;-84
2021/05/05 10:45:50;;;;;;;4.10;1.85;;;22.20;45.90;;;;;;5053401;28;20214;-84
2021/05/05 10:48:18;;;;;;;2.53;1.90;;;21.90;53.50;;;;;;5054885;28;20172;-85
2021/05/05 10:50:52;;;;;;;2.75;1.77;;;22.60;53.90;;;;;;5079701;28;20604;-84
2021/05/05 10:53:22;;;;;;;4.00;1.60;;;22.30;48.20;;;;;;5056153;28;20179;-83
2021/05/05 10:55:56;;;;;;;5.78;1.50;;;22.20;51.60;;;;;;5056219;28;20537;-84
2021/05/05 10:58:32;;;;;;;9.05;1.88;;;22.20;52.60;;;;;;5054297;28;20190;-85
2021/05/05 11:01:07;;;;;;;3.53;1.50;;;21.00;52.20;;;;;;5055114;28;20187;-85
2021/05/05 11:03:42;;;;;;;5.03;1.50;;;21.30;52.60;;;;;;5053528;28;20267;-83
2021/05/05 11:06:33;;;;;;;3.22;1.95;;;21.10;51.00;;;;;;5053500;28;20167;-85
2021/05/05 11:09:11;;;;;;;6.20;2.13;;;21.50;51.70;;;;;;5054655;28;20223;-85
2021/05/05 11:11:41;;;;;;;10.63;3.58;;;21.00;54.70;;;;;;5055596;28;20199;-84
2021/05/05 11:14:08;;;;;;;5.35;1.77;;;21.40;52.50;;;;;;5052976;28;20180;-84
2021/05/05 11:16:57;;;;;;;6.45;2.05;;;21.00;53.40;;;;;;5055262;28;20688;-84
2021/05/05 11:19:39;;;;;;;3.83;2.10;;;21.70;55.60;;;;;;5052440;28;20165;-84
2021/05/05 11:22:05;;;;;;;17.90;2.95;;;21.40;55.70;;;;;;5052708;28;20179;-84
2021/05/05 11:24:39;;;;;;;5.32;1.73;;;21.70;54.30;;;;;;5053939;28;20168;-84
2021/05/05 11:27:08;;;;;;;3.20;1.65;;;21.70;53.80;;;;;;5052291;28;20237;-84
2021/05/05 11:29:34;;;;;;;3.00;1.85;;;21.30;53.20;;;;;;5053928;28;20176;-84
2021/05/05 11:32:01;;;;;;;3.35;1.73;;;22.00;54.00;;;;;;5054784;28;20198;-84
2021/05/05 11:34:27;;;;;;;3.38;2.03;;;21.50;53.50;;;;;;5055354;28;20180;-84
2021/05/05 11:36:59;;;;;;;6.53;1.98;;;22.30;53.40;;;;;;5054917;28;20261;-83
2021/05/05 11:39:42;;;;;;;3.90;1.80;;;22.50;52.90;;;;;;5053656;28;20289;-83
2021/05/05 11:42:16;;;;;;;10.52;2.38;;;22.10;52.10;;;;;;5079272;28;20180;-84
2021/05/05 11:44:48;;;;;;;4.50;2.30;;;21.80;52.90;;;;;;5053261;28;20261;-83
2021/05/05 11:47:24;;;;;;;3.85;1.98;;;21.50;53.10;;;;;;5054560;28;20222;-84
2021/05/05 11:49:51;;;;;;;16.15;2.22;;;21.80;53.10;;;;;;5054547;28;20160;-85
2021/05/05 11:52:34;;;;;;;11.07;2.38;;;21.70;52.50;;;;;;5054142;28;20195;-84
2021/05/05 11:55:14;;;;;;;2.30;1.70;;;22.10;50.70;;;;;;5053129;28;20696;-85
2021/05/05 11:57:44;;;;;;;5.20;1.88;;;22.60;50.50;;;;;;5052671;28;20636;-83
2021/05/05 12:00:16;;;;;;;5.35;1.67;;;22.20;48.10;;;;;;5054051;28;20172;-84
2021/05/05 12:02:51;;;;;;;11.50;1.85;;;22.20;48.30;;;;;;5052684;28;20648;-84
2021/05/05 12:05:22;;;;;;;19.30;2.20;;;22.80;47.20;;;;;;5054122;28;20175;-84
2021/05/05 12:07:59;;;;;;;4.63;2.05;;;22.30;46.00;;;;;;5058600;28;20196;-84
2021/05/05 12:10:38;;;;;;;7.22;1.75;;;22.20;40.20;;;;;;5051798;28;20198;-85
2021/05/05 12:13:24;;;;;;;3.20;1.45;;;22.50;46.40;;;;;;5053258;28;20175;-84
2021/05/05 12:16:00;;;;;;;2.55;1.58;;;22.30;47.90;;;;;;5048814;28;20232;-85
2021/05/05 12:18:36;;;;;;;9.73;1.90;;;22.80;48.90;;;;;;5078056;28;20179;-84
2021/05/05 12:21:06;;;;;;;5.40;1.73;;;22.40;47.00;;;;;;5053242;28;20164;-84
2021/05/05 12:23:37;;;;;;;2.85;1.65;;;22.20;47.10;;;;;;5052177;28;20179;-83
2021/05/05 12:26:30;;;;;;;4.18;1.80;;;22.40;43.10;;;;;;5053056;28;20172;-85
2021/05/05 12:29:04;;;;;;;6.88;1.92;;;22.70;40.60;;;;;;5052337;28;20218;-84
2021/05/05 12:31:33;;;;;;;6.82;1.80;;;22.90;47.10;;;;;;5051589;28;20219;-85
2021/05/05 12:34:00;;;;;;;8.55;2.05;;;22.10;45.70;;;;;;5053344;28;20194;-86
2021/05/05 12:36:31;;;;;;;3.20;1.52;;;22.30;46.20;;;;;;5049704;28;20180;-83
2021/05/05 12:39:22;;;;;;;2.30;1.95;;;22.40;48.50;;;;;;5053889;28;20262;-84
2021/05/05 12:41:53;;;;;;;7.70;1.95;;;21.90;46.80;;;;;;5053745;28;20180;-82
2021/05/05 12:44:29;;;;;;;5.75;2.25;;;22.40;48.30;;;;;;5053698;28;20656;-83
2021/05/05 12:46:56;;;;;;;5.88;1.92;;;;;;;;;;5049396;28;20160;-85
2021/05/05 12:49:26;;;;;;;6.13;1.52;;;22.50;46.20;;;;;;5053326;28;20227;-83
2021/05/05 12:51:52;;;;;;;3.45;1.70;;;22.10;47.10;;;;;;5053410;28;20203;-84
2021/05/05 12:54:25;;;;;;;10.55;2.03;;;22.00;46.20;;;;;;5053082;28;20184;-85
2021/05/05 12:56:51;;;;;;;7.55;2.05;;;21.80;47.80;;;;;;5035293;28;20211;-88
2021/05/05 12:59:20;;;;;;;12.43;2.15;;;22.30;48.20;;;;;;5053222;28;20215;-84
2021/05/05 13:01:49;;;;;;;4.65;1.65;;;22.00;39.60;;;;;;5051901;28;20267;-87
2021/05/05 13:04:19;;;;;;;7.10;1.90;;;21.70;46.40;;;;;;5053066;28;20211;-82
2021/05/05 13:06:47;;;;;;;7.35;1.70;;;21.50;47.00;;;;;;5051910;28;20636;-83
2021/05/05 13:09:20;;;;;;;5.25;1.70;;;21.40;46.80;;;;;;5052168;28;20223;-83
2021/05/05 13:11:51;;;;;;;5.68;1.85;;;21.20;46.80;;;;;;5052427;28;20195;-84
2021/05/05 13:14:39;;;;;;;2.92;2.15;;;20.90;47.10;;;;;;5051515;28;20172;-83
2021/05/05 13:17:48;;;;;;;3.22;1.48;;;21.30;47.30;;;;;;5053725;28;20160;-83
2021/05/05 13:31:19;;;;;;;8.15;1.83;;;21.50;48.60;;;;;;5051092;28;20215;-85
2021/05/05 13:34:08;;;;;;;6.63;1.50;;;21.30;47.40;;;;;;5051985;28;20168;-84